Time;durP1;ratioP1;P1;durP2;ratioP2;P2;SDS_P1;SDS_P2;PMS_P1;PMS_P2;Temp;Humidity;BMP_temperature;BMP_pressure;BME280_temperature;BME280_humidity;BME280_pressure;Samples;Min_cycle;Max_cycle;Signal;HPM_P1;HPM_P2
2024/05/05 00:00:30;;;;;;;7.13;4.53;;;23.70;99.90;;;;;;5381992;26;20007;-52
2024/05/05 00:02:56;;;;;;;9.70;4.80;;;23.70;99.90;;;;;;5383200;26;20403;-52
2024/05/05 00:05:23;;;;;;;6.95;3.92;;;23.70;99.90;;;;;;5383538;26;20424;-52
2024/05/05 00:07:49;;;;;;;9.73;4.82;;;23.70;99.90;;;;;;5382797;26;20447;-52
2024/05/05 00:10:14;;;;;;;9.13;5.00;;;23.70;99.90;;;;;;5382881;26;19996;-52
2024/05/05 00:12:40;;;;;;;7.80;4.80;;;23.70;99.90;;;;;;5382763;26;19996;-52
2024/05/05 00:15:06;;;;;;;9.07;5.07;;;23.70;99.90;;;;;;5382791;26;19996;-52
2024/05/05 00:17:32;;;;;;;9.50;5.47;;;23.70;99.90;;;;;;5382780;26;20000;-55
2024/05/05 00:20:00;;;;;;;6.88;4.25;;;23.70;99.90;;;;;;5382914;26;20007;-52
2024/05/05 00:22:26;;;;;;;;;;;23.70;99.90;;;;;;5383207;26;20008;-51
2024/05/05 00:24:52;;;;;;;7.30;4.47;;;23.70;99.90;;;;;;5380703;26;19925;-51
2024/05/05 00:27:18;;;;;;;7.10;4.97;;;23.70;99.90;;;;;;5382956;26;20391;-51
2024/05/05 00:29:43;;;;;;;8.07;4.88;;;23.70;99.90;;;;;;5380832;26;20024;-53
2024/05/05 00:32:09;;;;;;;7.05;4.78;;;23.70;99.90;;;;;;5382622;26;20008;-51
2024/05/05 00:34:35;;;;;;;8.77;5.55;;;23.60;99.90;;;;;;5380686;26;20005;-51
2024/05/05 00:37:01;;;;;;;12.20;5.60;;;23.60;99.90;;;;;;5382573;26;20002;-52
2024/05/05 00:39:26;;;;;;;7.45;5.00;;;23.60;99.90;;;;;;5382402;26;20024;-52
2024/05/05 00:41:52;;;;;;;8.55;5.00;;;23.70;99.90;;;;;;5382618;26;20390;-52
2024/05/05 00:44:18;;;;;;;8.05;4.55;;;23.70;99.90;;;;;;5382503;26;20028;-52
2024/05/05 00:46:44;;;;;;;7.13;4.85;;;23.60;99.90;;;;;;5380523;26;20368;-52
2024/05/05 00:49:14;;;;;;;7.63;4.95;;;23.60;99.90;;;;;;5380601;26;20016;-52
2024/05/05 00:51:40;;;;;;;7.82;4.47;;;23.70;99.90;;;;;;5382302;26;20008;-51
2024/05/05 00:54:07;;;;;;;12.10;5.13;;;23.60;99.90;;;;;;5380454;26;20513;-53
2024/05/05 00:56:35;;;;;;;7.80;4.15;;;23.60;99.90;;;;;;5382650;26;20004;-51
2024/05/05 00:59:02;;;;;;;7.60;4.93;;;23.60;99.90;;;;;;5382456;26;19996;-52
2024/05/05 01:01:28;;;;;;;9.23;5.30;;;23.60;99.90;;;;;;5381750;21;20009;-53
2024/05/05 01:03:54;;;;;;;7.90;4.95;;;23.60;99.90;;;;;;5347201;26;20025;-52
2024/05/05 01:06:22;;;;;;;6.60;4.78;;;23.60;99.90;;;;;;5347174;26;20321;-53
2024/05/05 01:08:57;;;;;;;8.18;5.05;;;23.60;99.90;;;;;;5403375;26;20001;-52
2024/05/05 01:11:22;;;;;;;6.55;4.60;;;23.60;99.90;;;;;;5346904;26;20012;-52
2024/05/05 01:13:48;;;;;;;6.22;4.10;;;23.60;99.90;;;;;;5345027;26;20391;-52
2024/05/05 01:16:14;;;;;;;7.40;4.63;;;23.60;99.90;;;;;;5346900;26;20012;-52
2024/05/05 01:18:40;;;;;;;7.38;4.93;;;23.60;99.90;;;;;;5374007;26;20007;-53
2024/05/05 01:21:06;;;;;;;6.70;4.57;;;23.60;99.90;;;;;;5403964;26;20440;-53
2024/05/05 01:23:33;;;;;;;7.03;4.80;;;23.50;99.90;;;;;;5346966;26;19997;-53
2024/05/05 01:25:59;;;;;;;6.75;5.03;;;23.50;99.90;;;;;;5346490;26;19997;-53
2024/05/05 01:28:25;;;;;;;8.13;5.32;;;23.50;99.90;;;;;;5345662;26;20375;-52
2024/05/05 01:30:51;;;;;;;8.18;5.07;;;23.60;99.90;;;;;;5345016;26;20008;-53
2024/05/05 01:33:17;;;;;;;8.68;4.72;;;23.50;99.90;;;;;;5346500;26;20342;-53
2024/05/05 01:35:42;;;;;;;7.75;4.90;;;23.50;99.90;;;;;;5346348;26;20001;-52
2024/05/05 01:38:08;;;;;;;6.22;4.53;;;23.50;99.90;;;;;;5346473;26;20000;-52
2024/05/05 01:40:34;;;;;;;7.63;4.82;;;23.50;99.90;;;;;;5346811;26;20432;-53
2024/05/05 01:43:00;;;;;;;6.65;4.40;;;23.50;99.90;;;;;;5346432;26;20328;-52
2024/05/05 01:45:26;;;;;;;11.38;5.45;;;23.50;99.90;;;;;;5346392;26;20001;-53
2024/05/05 01:47:52;;;;;;;9.10;4.65;;;23.50;99.90;;;;;;5346425;26;20486;-52
2024/05/05 01:50:18;;;;;;;5.68;4.15;;;23.50;99.90;;;;;;5346255;26;20016;-53
2024/05/05 01:52:43;;;;;;;9.02;4.25;;;23.50;99.90;;;;;;5346253;26;19997;-52
2024/05/05 01:55:09;;;;;;;7.43;4.35;;;23.50;99.90;;;;;;5402961;26;19996;-53
2024/05/05 01:57:35;;;;;;;7.53;4.63;;;23.50;99.90;;;;;;5346291;26;19996;-52
2024/05/05 02:00:01;;;;;;;8.88;4.68;;;23.50;99.90;;;;;;5346191;26;20033;-52
2024/05/05 02:02:27;;;;;;;6.97;4.57;;;23.50;99.90;;;;;;5391621;21;20015;-51
2024/05/05 02:04:53;;;;;;;7.70;5.00;;;23.50;99.90;;;;;;5381140;26;20007;-51
2024/05/05 02:07:19;;;;;;;8.73;4.70;;;23.50;99.90;;;;;;5381094;26;19996;-51
2024/05/05 02:09:44;;;;;;;8.10;5.13;;;23.40;99.90;;;;;;5379229;26;19996;-52
2024/05/05 02:12:10;;;;;;;6.90;4.28;;;23.40;99.90;;;;;;5379363;26;20003;-52
2024/05/05 02:14:36;;;;;;;8.32;4.60;;;23.40;99.90;;;;;;5381156;26;20003;-52
2024/05/05 02:17:02;;;;;;;6.25;4.43;;;23.40;99.90;;;;;;5379345;26;20000;-52
2024/05/05 02:19:28;;;;;;;7.47;4.47;;;23.40;99.90;;;;;;5381065;26;19996;-52
2024/05/05 02:21:53;;;;;;;6.43;4.90;;;23.40;99.90;;;;;;5350227;26;19992;-50
2024/05/05 02:24:19;;;;;;;6.05;4.43;;;23.40;99.90;;;;;;5381067;26;20006;-52
2024/05/05 02:26:45;;;;;;;5.78;4.20;;;23.40;99.90;;;;;;5380927;26;20073;-52
2024/05/05 02:29:11;;;;;;;8.07;4.53;;;23.40;99.90;;;;;;5380913;26;20008;-51
2024/05/05 02:31:37;;;;;;;7.13;4.95;;;23.40;99.90;;;;;;5381591;26;20007;-52
2024/05/05 02:34:02;;;;;;;6.78;4.57;;;23.40;99.90;;;;;;5380862;26;20003;-51
2024/05/05 02:36:28;;;;;;;7.10;4.57;;;23.40;99.90;;;;;;5379108;26;20007;-51
2024/05/05 02:38:54;;;;;;;5.82;4.47;;;23.40;99.90;;;;;;5379185;26;20074;-51
2024/05/05 02:41:20;;;;;;;5.35;3.88;;;23.40;99.90;;;;;;5379206;26;20029;-51
2024/05/05 02:43:45;;;;;;;6.70;4.25;;;23.40;99.90;;;;;;5380863;26;20003;-50
2024/05/05 02:46:12;;;;;;;7.38;4.80;;;23.30;99.90;;;;;;5380882;26;20325;-51
2024/05/05 02:48:38;;;;;;;6.32;4.05;;;23.30;99.90;;;;;;5380881;26;20444;-51
2024/05/05 02:51:04;;;;;;;5.85;3.90;;;23.30;99.90;;;;;;5380706;26;20007;-52
2024/05/05 02:53:30;;;;;;;5.32;4.20;;;23.30;99.90;;;;;;5380531;26;20004;-51
2024/05/05 02:55:56;;;;;;;4.90;3.67;;;23.30;99.90;;;;;;5380678;26;19997;-52
2024/05/05 02:58:21;;;;;;;8.80;4.85;;;23.30;99.90;;;;;;5380474;26;20424;-53
2024/05/05 03:00:47;;;;;;;6.78;4.22;;;23.30;99.90;;;;;;5395270;21;20016;-57
2024/05/05 03:03:13;;;;;;;6.18;4.05;;;23.30;99.90;;;;;;5380200;26;20008;-56
2024/05/05 03:05:39;;;;;;;5.10;3.95;;;23.30;99.90;;;;;;5380665;26;20406;-55
2024/05/05 03:08:12;;;;;;;5.60;3.83;;;23.30;99.90;;;;;;5380204;26;20000;-54
2024/05/05 03:10:42;;;;;;;5.00;3.88;;;23.30;99.90;;;;;;5350224;26;20007;-55
2024/05/05 03:13:08;;;;;;;6.47;4.45;;;23.30;99.90;;;;;;5380353;26;20397;-55
2024/05/05 03:15:33;;;;;;;7.88;4.97;;;23.30;99.90;;;;;;5379958;26;20015;-55
2024/05/05 03:17:59;;;;;;;5.57;4.25;;;23.30;99.90;;;;;;5378186;26;20073;-56
2024/05/05 03:20:25;;;;;;;6.97;4.03;;;23.30;99.90;;;;;;5380037;26;20463;-55
2024/05/05 03:22:51;;;;;;;4.80;3.65;;;23.30;99.90;;;;;;5379817;26;20011;-55
2024/05/05 03:25:17;;;;;;;6.22;4.30;;;23.30;99.90;;;;;;5380182;26;20000;-55
2024/05/05 03:27:44;;;;;;;6.22;3.72;;;23.30;99.90;;;;;;5379997;26;20008;-55
2024/05/05 03:30:15;;;;;;;6.57;4.35;;;23.20;99.90;;;;;;5379990;26;19996;-56
2024/05/05 03:32:41;;;;;;;5.50;3.80;;;23.30;99.90;;;;;;5380130;26;20359;-55
2024/05/05 03:35:07;;;;;;;8.27;4.40;;;23.20;99.90;;;;;;5379618;26;20000;-55
2024/05/05 03:37:33;;;;;;;7.93;3.90;;;23.20;99.90;;;;;;5377640;26;20010;-55
2024/05/05 03:39:59;;;;;;;5.05;3.90;;;23.20;99.90;;;;;;5379629;26;20413;-55
2024/05/05 03:42:24;;;;;;;5.95;4.43;;;23.20;99.90;;;;;;5377687;26;19996;-55
2024/05/05 03:44:50;;;;;;;5.72;3.78;;;23.20;99.90;;;;;;5379458;26;20333;-54
2024/05/05 03:47:16;;;;;;;6.30;3.45;;;23.20;99.90;;;;;;5379388;26;19996;-55
2024/05/05 03:49:42;;;;;;;5.72;3.15;;;23.20;99.90;;;;;;5379618;26;19996;-56
2024/05/05 03:52:07;;;;;;;5.18;3.45;;;23.20;99.90;;;;;;5380553;26;20001;-56
2024/05/05 03:54:33;;;;;;;4.53;3.42;;;23.20;99.90;;;;;;5383214;26;20323;-55
2024/05/05 03:56:59;;;;;;;5.32;3.55;;;23.20;99.90;;;;;;5381378;26;19996;-55
2024/05/05 03:59:25;;;;;;;6.43;4.00;;;23.20;99.90;;;;;;5382651;26;20011;-55
2024/05/05 04:01:51;;;;;;;4.50;3.55;;;23.20;99.90;;;;;;5382914;26;20011;-56
2024/05/05 04:04:18;;;;;;;4.72;3.40;;;23.20;99.90;;;;;;5383066;26;20007;-55
2024/05/05 04:06:44;;;;;;;4.35;3.17;;;23.20;99.90;;;;;;5382990;26;20000;-55
2024/05/05 04:09:10;;;;;;;6.35;3.35;;;23.10;99.90;;;;;;5382725;26;20440;-54
2024/05/05 04:11:35;;;;;;;4.90;3.40;;;23.20;99.90;;;;;;5382770;26;20007;-55
2024/05/05 04:14:01;;;;;;;5.57;3.55;;;23.20;99.90;;;;;;5382628;26;20065;-55
2024/05/05 04:16:27;;;;;;;5.25;3.13;;;23.20;99.90;;;;;;5382722;26;20018;-55
2024/05/05 04:18:53;;;;;;;3.95;3.17;;;23.20;99.90;;;;;;5382806;26;20010;-56
2024/05/05 04:21:18;;;;;;;4.25;3.33;;;23.10;99.90;;;;;;5382546;26;20004;-55
2024/05/05 04:23:44;;;;;;;5.28;3.60;;;23.10;99.90;;;;;;5380846;26;20007;-55
2024/05/05 04:26:10;;;;;;;5.57;3.67;;;23.10;99.90;;;;;;5382484;26;20011;-54
2024/05/05 04:28:36;;;;;;;6.00;3.60;;;23.10;99.90;;;;;;5382396;26;19996;-54
2024/05/05 04:31:02;;;;;;;7.10;3.80;;;23.10;99.90;;;;;;5382585;26;20015;-55
2024/05/05 04:33:28;;;;;;;4.88;3.17;;;23.10;99.90;;;;;;5380601;26;20018;-54
2024/05/05 04:35:54;;;;;;;5.82;3.67;;;23.10;99.90;;;;;;5382439;26;20007;-54
2024/05/05 04:38:20;;;;;;;3.83;3.05;;;23.10;99.90;;;;;;5351437;26;20004;-55
2024/05/05 04:40:45;;;;;;;6.57;3.78;;;23.10;99.90;;;;;;5382390;26;20005;-55
2024/05/05 04:43:11;;;;;;;5.95;3.95;;;23.10;99.90;;;;;;5382353;26;20432;-55
2024/05/05 04:45:38;;;;;;;5.25;3.25;;;23.10;99.90;;;;;;5382391;26;19992;-54
2024/05/05 04:48:06;;;;;;;4.70;3.17;;;23.10;99.90;;;;;;5382261;26;20441;-55
2024/05/05 04:50:32;;;;;;;;;;;23.10;99.90;;;;;;5382763;26;19997;-55
2024/05/05 04:52:57;;;;;;;5.80;3.40;;;23.10;99.90;;;;;;5382153;26;19926;-55
2024/05/05 04:55:23;;;;;;;5.60;3.55;;;23.10;99.90;;;;;;5382083;26;20439;-54
2024/05/05 04:57:49;;;;;;;7.78;3.90;;;23.10;99.90;;;;;;5382023;26;19996;-55
2024/05/05 05:00:15;;;;;;;5.00;3.38;;;23.00;99.90;;;;;;5381840;26;19996;-55
2024/05/05 05:02:40;;;;;;;5.63;3.35;;;23.10;99.90;;;;;;5377737;26;20012;-55
2024/05/05 05:05:06;;;;;;;6.78;3.67;;;23.10;99.90;;;;;;5376002;26;20004;-56
2024/05/05 05:07:32;;;;;;;6.18;3.63;;;23.10;99.90;;;;;;5378559;26;20003;-55
2024/05/05 05:09:58;;;;;;;6.53;3.28;;;23.00;99.90;;;;;;5378436;26;20007;-55
2024/05/05 05:12:23;;;;;;;4.93;3.10;;;23.00;99.90;;;;;;5378201;26;20428;-55
2024/05/05 05:14:49;;;;;;;4.78;3.15;;;23.00;99.90;;;;;;5376575;26;20322;-55
2024/05/05 05:17:15;;;;;;;4.15;3.17;;;23.00;99.90;;;;;;5380381;26;20336;-55
2024/05/05 05:19:43;;;;;;;7.50;2.92;;;23.00;99.90;;;;;;5382025;26;20462;-54
2024/05/05 05:22:09;;;;;;;;;;;23.00;99.90;;;;;;5380881;26;20004;-54
2024/05/05 05:24:34;;;;;;;4.40;2.67;;;23.00;99.90;;;;;;5381584;26;19937;-54
2024/05/05 05:27:00;;;;;;;4.88;3.05;;;23.00;99.90;;;;;;5381785;26;20007;-55
2024/05/05 05:29:26;;;;;;;6.22;3.42;;;23.00;99.90;;;;;;5381541;26;20003;-55
2024/05/05 05:31:52;;;;;;;5.25;3.00;;;23.00;99.90;;;;;;5381507;26;20066;-55
2024/05/05 05:34:17;;;;;;;4.97;2.83;;;23.00;99.90;;;;;;5381772;26;20339;-55
2024/05/05 05:36:43;;;;;;;8.98;2.83;;;23.00;99.90;;;;;;5381442;26;20065;-55
2024/05/05 05:39:09;;;;;;;6.45;2.88;;;23.00;99.90;;;;;;5381697;26;19992;-56
2024/05/05 05:41:35;;;;;;;4.25;3.08;;;23.00;99.90;;;;;;5381524;26;20002;-55
2024/05/05 05:44:00;;;;;;;5.07;3.30;;;23.00;99.90;;;;;;5381501;26;20417;-55
2024/05/05 05:46:26;;;;;;;5.53;2.83;;;23.00;99.90;;;;;;5381310;26;19995;-55
2024/05/05 05:48:52;;;;;;;3.90;3.08;;;23.00;99.90;;;;;;5381376;26;20003;-55
2024/05/05 05:51:18;;;;;;;3.72;2.70;;;23.00;99.90;;;;;;5381495;26;19992;-55
2024/05/05 05:53:44;;;;;;;4.97;3.00;;;23.00;99.90;;;;;;5381197;26;20007;-55
2024/05/05 05:56:09;;;;;;;6.32;3.08;;;23.00;99.90;;;;;;5381341;26;19992;-55
2024/05/05 05:58:35;;;;;;;3.80;2.47;;;23.00;99.90;;;;;;5381121;26;20073;-55
2024/05/05 06:01:01;;;;;;;4.30;2.80;;;23.00;99.90;;;;;;5380881;26;20069;-55
2024/05/05 06:03:27;;;;;;;3.63;2.50;;;23.00;99.90;;;;;;5381147;26;20003;-55
2024/05/05 06:05:52;;;;;;;4.55;2.38;;;23.00;99.90;;;;;;5381158;26;20390;-55
2024/05/05 06:08:18;;;;;;;4.60;3.08;;;23.00;99.90;;;;;;5381172;26;20408;-55
2024/05/05 06:10:44;;;;;;;4.38;2.80;;;23.00;99.90;;;;;;5380921;26;20431;-55
2024/05/05 06:13:10;;;;;;;5.18;2.65;;;23.00;99.90;;;;;;5381019;26;20003;-55
2024/05/05 06:15:35;;;;;;;2.95;2.15;;;23.00;99.90;;;;;;5380518;26;19996;-55
2024/05/05 06:18:01;;;;;;;5.18;3.05;;;23.00;99.90;;;;;;5381217;26;19992;-56
2024/05/05 06:20:27;;;;;;;5.35;2.42;;;23.00;99.90;;;;;;5379122;26;20517;-56
2024/05/05 06:22:53;;;;;;;4.55;2.65;;;23.00;99.90;;;;;;5380936;26;20004;-57
2024/05/05 06:25:18;;;;;;;3.67;3.25;;;23.00;99.90;;;;;;5381158;26;20353;-56
2024/05/05 06:27:44;;;;;;;4.47;2.58;;;23.00;99.90;;;;;;5380748;26;20335;-55
2024/05/05 06:30:10;;;;;;;4.90;2.25;;;23.00;99.90;;;;;;5380833;26;20324;-55
2024/05/05 06:32:36;;;;;;;3.78;2.38;;;23.00;99.90;;;;;;5380954;26;20003;-56
2024/05/05 06:35:01;;;;;;;5.18;2.28;;;23.00;99.90;;;;;;5380845;26;20708;-56
2024/05/05 06:37:27;;;;;;;4.70;2.38;;;23.00;99.90;;;;;;5378930;26;20065;-56
2024/05/05 06:39:53;;;;;;;4.15;2.33;;;23.00;99.90;;;;;;5381053;26;20011;-55
2024/05/05 06:42:19;;;;;;;4.75;2.40;;;23.00;99.90;;;;;;5380977;26;19996;-55
2024/05/05 06:44:45;;;;;;;5.13;2.38;;;23.00;99.90;;;;;;5379027;26;19996;-56
2024/05/05 06:47:10;;;;;;;3.97;2.45;;;23.00;99.90;;;;;;5380609;26;19992;-56
2024/05/05 06:49:36;;;;;;;3.92;2.60;;;23.00;99.90;;;;;;5380533;26;20003;-55
2024/05/05 06:52:02;;;;;;;5.28;2.78;;;23.00;99.90;;;;;;5380601;26;20004;-56
2024/05/05 06:54:28;;;;;;;4.05;2.15;;;23.00;99.90;;;;;;5378489;26;20003;-55
2024/05/05 06:56:54;;;;;;;3.85;2.33;;;23.00;99.90;;;;;;5380579;26;20032;-54
2024/05/05 06:59:19;;;;;;;4.65;2.70;;;23.00;99.90;;;;;;5380475;26;20508;-55
2024/05/05 07:01:45;;;;;;;4.72;2.50;;;23.00;99.90;;;;;;5379798;26;20007;-55
2024/05/05 07:04:11;;;;;;;3.05;2.03;;;23.00;99.90;;;;;;5380274;26;20007;-56
2024/05/05 07:06:37;;;;;;;5.75;2.75;;;23.00;99.90;;;;;;5380210;26;20015;-55
2024/05/05 07:09:02;;;;;;;4.80;2.55;;;23.00;99.90;;;;;;5380061;26;20008;-54
2024/05/05 07:11:28;;;;;;;4.97;2.30;;;23.00;99.90;;;;;;5380085;26;20432;-55
2024/05/05 07:13:54;;;;;;;3.33;2.22;;;23.00;99.90;;;;;;5380481;26;19996;-55
2024/05/05 07:16:19;;;;;;;3.30;2.35;;;23.00;99.90;;;;;;5380138;26;19996;-55
2024/05/05 07:18:45;;;;;;;3.50;2.25;;;23.00;99.90;;;;;;5380107;26;20008;-55
2024/05/05 07:21:11;;;;;;;2.90;2.00;;;23.00;99.90;;;;;;5379933;26;19996;-55
2024/05/05 07:23:37;;;;;;;4.70;2.40;;;23.00;99.90;;;;;;5379741;26;20444;-55
2024/05/05 07:26:03;;;;;;;4.60;1.92;;;23.00;99.90;;;;;;5379667;26;20316;-55
2024/05/05 07:28:28;;;;;;;3.70;2.40;;;23.00;99.90;;;;;;5382964;26;20394;-55
2024/05/05 07:30:54;;;;;;;3.90;2.58;;;23.00;99.90;;;;;;5383509;26;20064;-55
2024/05/05 07:33:20;;;;;;;3.00;2.22;;;23.00;99.90;;;;;;5381494;26;20000;-55
2024/05/05 07:35:45;;;;;;;2.60;2.10;;;23.00;99.90;;;;;;5381277;26;19992;-54
2024/05/05 07:38:11;;;;;;;4.20;2.47;;;23.00;99.90;;;;;;5383088;26;20004;-56
2024/05/05 07:40:37;;;;;;;2.70;2.33;;;23.00;99.90;;;;;;5383233;26;20003;-56
2024/05/05 07:43:03;;;;;;;3.25;2.25;;;23.00;99.90;;;;;;5383596;26;20065;-56
2024/05/05 07:45:29;;;;;;;6.15;2.45;;;23.00;99.90;;;;;;5383181;26;20468;-55
2024/05/05 07:48:02;;;;;;;3.08;2.35;;;23.00;99.90;;;;;;5383478;26;20004;-55
2024/05/05 07:50:28;;;;;;;3.45;2.40;;;23.00;99.90;;;;;;5382976;26;20006;-55
2024/05/05 07:52:54;;;;;;;3.63;2.33;;;23.00;99.90;;;;;;5383408;26;20436;-55
2024/05/05 07:55:19;;;;;;;5.63;2.40;;;23.00;99.90;;;;;;5383163;26;20317;-54
2024/05/05 07:57:45;;;;;;;2.92;2.15;;;23.00;99.90;;;;;;5382965;26;20392;-54
2024/05/05 08:00:11;;;;;;;2.83;1.90;;;23.00;99.90;;;;;;5382859;26;20026;-54
2024/05/05 08:02:37;;;;;;;4.57;2.80;;;23.00;99.90;;;;;;5382587;26;20003;-54
2024/05/05 08:05:03;;;;;;;2.70;2.10;;;23.00;99.90;;;;;;5382700;26;20422;-54
2024/05/05 08:07:29;;;;;;;4.47;2.60;;;23.00;99.90;;;;;;5382645;26;20006;-55
2024/05/05 08:09:54;;;;;;;4.20;2.28;;;23.00;99.90;;;;;;5382838;26;20338;-55
2024/05/05 08:12:20;;;;;;;2.00;1.67;;;23.00;99.90;;;;;;5382692;26;19992;-55
2024/05/05 08:14:46;;;;;;;4.45;1.80;;;23.00;99.90;;;;;;5382615;26;20007;-56
2024/05/05 08:17:12;;;;;;;3.72;2.15;;;23.10;99.90;;;;;;5382638;26;20452;-56
2024/05/05 08:19:38;;;;;;;3.83;2.45;;;23.00;99.90;;;;;;5382475;26;20459;-55
2024/05/05 08:22:03;;;;;;;3.50;2.17;;;23.00;99.90;;;;;;5382358;26;20332;-56
2024/05/05 08:24:33;;;;;;;3.72;2.20;;;23.10;99.90;;;;;;5382313;26;20066;-55
2024/05/05 08:26:58;;;;;;;3.95;1.98;;;23.00;99.90;;;;;;5382470;26;19993;-55
2024/05/05 08:29:24;;;;;;;2.47;1.90;;;23.10;99.90;;;;;;5382795;26;20458;-55
2024/05/05 08:31:50;;;;;;;3.40;2.25;;;23.10;99.90;;;;;;5382661;26;19992;-54
2024/05/05 08:34:16;;;;;;;4.05;2.03;;;23.10;99.90;;;;;;5382216;26;19996;-54
2024/05/05 08:36:41;;;;;;;4.03;1.98;;;23.10;99.90;;;;;;5382135;26;20501;-55
2024/05/05 08:39:07;;;;;;;4.35;2.00;;;23.10;99.90;;;;;;5380692;26;20324;-55
2024/05/05 08:41:37;;;;;;;5.32;2.65;;;23.10;99.90;;;;;;5382343;26;19996;-55
2024/05/05 08:44:06;;;;;;;6.03;2.20;;;23.10;99.90;;;;;;5379654;26;20070;-55
2024/05/05 08:46:33;;;;;;;3.90;1.95;;;23.10;99.90;;;;;;5365718;26;20049;-56
2024/05/05 08:49:03;;;;;;;3.35;2.22;;;23.10;99.90;;;;;;5348009;26;20016;-56
2024/05/05 08:51:29;;;;;;;2.80;1.95;;;23.10;99.90;;;;;;5343766;26;20008;-55
2024/05/05 08:53:54;;;;;;;2.22;1.92;;;23.10;99.90;;;;;;5343799;26;19992;-55
2024/05/05 08:56:24;;;;;;;2.80;1.80;;;23.10;99.90;;;;;;5346329;26;20083;-55
2024/05/05 08:58:50;;;;;;;4.18;2.03;;;23.10;99.90;;;;;;5346995;26;20005;-55
2024/05/05 09:01:27;;;;;;;3.25;1.75;;;23.10;99.90;;;;;;5343178;26;20007;-56
2024/05/05 09:04:22;;;;;;;2.60;1.77;;;23.10;99.90;;;;;;5343859;26;20454;-57
2024/05/05 09:06:50;;;;;;;3.15;2.38;;;23.10;99.90;;;;;;5345525;26;20022;-56
2024/05/05 09:09:16;;;;;;;2.47;2.10;;;23.20;99.90;;;;;;5343442;26;19992;-55
2024/05/05 09:11:43;;;;;;;3.80;1.88;;;23.20;99.90;;;;;;5343251;26;19997;-55
2024/05/05 09:14:13;;;;;;;3.47;1.90;;;23.10;99.90;;;;;;5343207;26;19993;-55
2024/05/05 09:16:40;;;;;;;3.72;2.17;;;23.20;99.90;;;;;;5343371;26;20001;-56
2024/05/05 09:19:05;;;;;;;8.13;2.47;;;23.20;99.90;;;;;;5343035;26;20004;-56
2024/05/05 09:21:31;;;;;;;2.70;2.10;;;23.20;99.90;;;;;;5371560;26;20341;-55
2024/05/05 09:23:57;;;;;;;5.97;2.83;;;23.20;99.90;;;;;;5374109;26;20000;-55
2024/05/05 09:26:23;;;;;;;4.03;2.72;;;23.20;99.90;;;;;;5346406;26;20207;-55
2024/05/05 09:28:49;;;;;;;3.47;2.20;;;23.20;99.90;;;;;;5346979;26;19997;-55
2024/05/05 09:31:14;;;;;;;2.70;2.10;;;23.20;99.90;;;;;;5346870;26;20008;-55
2024/05/05 09:33:41;;;;;;;6.95;2.42;;;23.20;99.90;;;;;;5344929;26;20011;-55
2024/05/05 09:36:07;;;;;;;4.28;2.97;;;23.20;99.90;;;;;;5344845;26;20025;-55
2024/05/05 09:38:36;;;;;;;7.97;2.85;;;23.20;99.90;;;;;;5346521;26;20005;-55
2024/05/05 09:41:02;;;;;;;4.10;2.70;;;23.20;99.90;;;;;;5346775;26;20337;-55
2024/05/05 09:43:28;;;;;;;4.82;2.90;;;23.20;99.90;;;;;;5346914;26;19997;-55
2024/05/05 09:45:57;;;;;;;4.15;2.90;;;23.20;99.90;;;;;;5347035;26;20441;-55
2024/05/05 09:48:27;;;;;;;4.82;3.70;;;23.20;99.90;;;;;;5346845;26;20008;-55
2024/05/05 09:51:10;;;;;;;4.68;2.75;;;23.20;99.90;;;;;;5345803;26;21234;-56
2024/05/05 09:53:54;;;;;;;3.58;2.67;;;23.20;99.90;;;;;;5346209;26;20011;-55
2024/05/05 09:56:37;;;;;;;4.43;2.95;;;23.30;99.90;;;;;;5346243;26;20078;-53
2024/05/05 09:59:21;;;;;;;4.10;2.97;;;23.30;99.90;;;;;;5346059;26;20009;-54
2024/05/05 10:01:56;;;;;;;4.30;3.15;;;23.30;99.90;;;;;;5345767;26;19997;-54
2024/05/05 10:04:23;;;;;;;4.93;3.42;;;23.30;99.90;;;;;;5345996;26;20009;-54
2024/05/05 10:06:58;;;;;;;5.07;3.15;;;23.30;99.90;;;;;;5346008;26;19997;-54
2024/05/05 10:09:32;;;;;;;3.90;3.03;;;23.30;99.90;;;;;;5344212;26;20036;-55
2024/05/05 10:12:05;;;;;;;4.60;3.22;;;23.30;99.90;;;;;;5345868;26;20009;-55
2024/05/05 10:14:32;;;;;;;5.30;3.47;;;23.30;99.90;;;;;;5346278;26;20001;-55
2024/05/05 10:16:58;;;;;;;4.50;3.33;;;23.30;99.90;;;;;;5344186;26;20001;-55
2024/05/05 10:19:25;;;;;;;4.85;3.35;;;23.30;99.90;;;;;;5344025;26;20011;-55
2024/05/05 10:22:02;;;;;;;6.25;3.72;;;23.40;99.90;;;;;;5345780;26;20075;-55
2024/05/05 10:24:28;;;;;;;5.30;3.38;;;23.40;99.90;;;;;;5345906;26;20471;-55
2024/05/05 10:26:54;;;;;;;5.97;3.00;;;23.40;99.90;;;;;;5346068;26;19997;-55
2024/05/05 10:29:20;;;;;;;4.63;2.90;;;23.40;99.90;;;;;;5345915;26;19997;-55
2024/05/05 10:31:47;;;;;;;4.47;3.45;;;23.40;99.90;;;;;;5344353;26;20515;-55
2024/05/05 10:34:13;;;;;;;5.03;3.70;;;23.40;99.90;;;;;;5345957;26;19997;-55
2024/05/05 10:36:39;;;;;;;4.05;2.88;;;23.40;99.90;;;;;;5345687;26;20036;-55
2024/05/05 10:39:05;;;;;;;5.00;3.15;;;23.50;99.90;;;;;;5345699;26;20091;-55
2024/05/05 10:41:32;;;;;;;5.45;3.42;;;23.50;99.90;;;;;;5345668;26;20136;-56
2024/05/05 10:43:58;;;;;;;5.18;3.30;;;23.50;99.90;;;;;;5345686;26;19997;-55
2024/05/05 10:46:24;;;;;;;4.70;3.40;;;23.50;99.90;;;;;;5345453;26;20032;-55
2024/05/05 10:48:55;;;;;;;4.70;3.58;;;23.50;99.90;;;;;;5345593;26;20015;-55
2024/05/05 10:51:21;;;;;;;6.13;3.65;;;23.50;99.90;;;;;;5343827;26;20353;-55
2024/05/05 10:53:48;;;;;;;6.97;3.53;;;23.50;99.90;;;;;;5343726;26;20071;-55
2024/05/05 10:56:14;;;;;;;5.28;3.90;;;23.50;99.90;;;;;;5345659;26;20332;-55
2024/05/05 10:58:40;;;;;;;8.05;3.63;;;23.50;99.90;;;;;;5345255;26;20008;-56
2024/05/05 11:01:06;;;;;;;5.57;3.15;;;23.50;99.90;;;;;;5345378;26;20012;-55
2024/05/05 11:03:38;;;;;;;4.78;3.63;;;23.60;99.90;;;;;;5348310;26;20001;-55
2024/05/05 11:06:11;;;;;;;5.30;3.80;;;23.60;99.90;;;;;;5348667;26;20453;-55
2024/05/05 11:08:42;;;;;;;4.63;4.00;;;23.60;99.90;;;;;;5346749;26;20001;-55
2024/05/05 11:11:08;;;;;;;5.18;3.58;;;23.60;99.90;;;;;;5348537;26;20030;-55
2024/05/05 11:13:35;;;;;;;5.90;3.72;;;23.60;99.90;;;;;;5348254;26;20011;-55
2024/05/05 11:16:05;;;;;;;7.40;4.30;;;23.60;99.90;;;;;;5348346;26;20011;-55
2024/05/05 11:18:41;;;;;;;5.75;4.43;;;23.60;99.90;;;;;;5348307;26;20012;-55
2024/05/05 11:21:07;;;;;;;6.45;4.10;;;23.60;99.90;;;;;;5348687;26;20079;-55
2024/05/05 11:23:33;;;;;;;5.35;3.58;;;23.60;99.90;;;;;;5347881;26;20012;-56
2024/05/05 11:25:58;;;;;;;6.55;3.97;;;23.70;99.90;;;;;;5348166;26;20007;-55
2024/05/05 11:28:26;;;;;;;4.88;3.15;;;23.60;99.90;;;;;;5348164;26;20000;-56
2024/05/05 11:30:52;;;;;;;5.82;3.80;;;23.70;99.90;;;;;;5348360;26;20119;-54
2024/05/05 11:33:20;;;;;;;4.85;3.50;;;23.70;99.90;;;;;;5348083;26;20011;-54
2024/05/05 11:35:47;;;;;;;4.38;3.70;;;23.70;99.90;;;;;;5347994;26;20071;-56
2024/05/05 11:38:13;;;;;;;6.05;3.83;;;23.70;99.90;;;;;;5348056;26;20001;-55
2024/05/05 11:40:52;;;;;;;5.80;4.00;;;23.70;99.90;;;;;;5348386;26;20020;-56
2024/05/05 11:43:43;;;;;;;4.65;3.70;;;23.70;99.90;;;;;;5346253;26;20429;-55
2024/05/05 11:46:14;;;;;;;5.85;3.33;;;23.70;99.90;;;;;;5348232;26;20422;-55
2024/05/05 11:49:18;;;;;;;5.35;3.80;;;23.80;99.90;;;;;;5347911;26;19997;-55
2024/05/05 11:51:58;;;;;;;6.28;3.78;;;23.80;99.90;;;;;;5347706;26;20004;-55
2024/05/05 11:54:24;;;;;;;3.95;3.47;;;23.80;99.90;;;;;;5348005;26;20356;-54
2024/05/05 11:56:50;;;;;;;4.18;3.15;;;23.80;99.90;;;;;;5346282;26;19997;-55
2024/05/05 11:59:17;;;;;;;10.10;3.92;;;23.80;99.90;;;;;;5347881;26;20376;-55
2024/05/05 12:01:43;;;;;;;8.90;3.83;;;23.80;99.90;;;;;;5348019;26;20335;-55
2024/05/05 12:04:35;;;;;;;5.60;3.38;;;23.80;99.90;;;;;;5347794;26;20016;-55
2024/05/05 12:07:16;;;;;;;5.25;3.15;;;23.80;99.90;;;;;;5375302;26;20498;-55
2024/05/05 12:09:42;;;;;;;4.50;3.53;;;23.90;99.90;;;;;;5347918;26;20001;-54
2024/05/05 12:12:08;;;;;;;6.22;3.00;;;23.90;99.90;;;;;;5348052;26;20069;-55
2024/05/05 12:14:34;;;;;;;6.82;3.25;;;23.90;99.90;;;;;;5349874;26;20007;-56
2024/05/05 12:16:59;;;;;;;6.10;3.90;;;23.90;99.90;;;;;;5358965;26;20000;-55
2024/05/05 12:19:25;;;;;;;5.13;3.47;;;23.90;99.90;;;;;;5344010;26;19996;-55
2024/05/05 12:21:51;;;;;;;6.43;3.88;;;23.90;99.90;;;;;;5344299;26;20003;-55
2024/05/05 12:24:17;;;;;;;5.13;3.63;;;23.90;99.90;;;;;;5344395;26;19993;-55
2024/05/05 12:26:44;;;;;;;7.63;3.72;;;24.00;99.90;;;;;;5344366;26;19989;-55
2024/05/05 12:29:14;;;;;;;;;;;24.00;99.90;;;;;;5344983;26;20032;-56
2024/05/05 12:31:43;;;;;;;6.47;4.47;;;24.00;99.90;;;;;;5344279;26;19926;-55
2024/05/05 12:34:09;;;;;;;5.28;4.38;;;24.00;99.90;;;;;;5347967;26;19996;-55
2024/05/05 12:36:53;;;;;;;6.82;4.30;;;24.00;99.90;;;;;;5347340;26;20083;-55
2024/05/05 12:39:27;;;;;;;8.93;4.70;;;24.00;99.90;;;;;;5347351;26;20066;-55
2024/05/05 12:41:54;;;;;;;8.02;5.05;;;24.00;99.90;;;;;;5347433;26;20004;-55
2024/05/05 12:44:20;;;;;;;7.22;5.78;;;24.00;99.90;;;;;;5347346;26;20008;-55
2024/05/05 12:47:06;;;;;;;9.57;5.22;;;24.10;99.90;;;;;;5347330;26;20070;-55